sensor_id;sensor_type;location;lat;lon;timestamp;P1;durP1;ratioP1;P2;durP2;ratioP2
44606;SDS011;30315;46.072;14.474;2022-08-21T00:01:49;2.28;;;1.92;;
44606;SDS011;30315;46.072;14.474;2022-08-21T00:04:16;2.42;;;1.92;;
44606;SDS011;30315;46.072;14.474;2022-08-21T00:06:48;2.08;;;1.85;;
44606;SDS011;30315;46.072;14.474;2022-08-21T00:09:16;3.97;;;2.22;;
44606;SDS011;30315;46.072;14.474;2022-08-21T00:11:44;4.03;;;1.80;;
44606;SDS011;30315;46.072;14.474;2022-08-21T00:14:12;2.03;;;1.83;;
44606;SDS011;30315;46.072;14.474;2022-08-21T00:16:39;1.95;;;1.85;;
44606;SDS011;30315;46.072;14.474;2022-08-21T00:19:07;2.10;;;1.90;;
44606;SDS011;30315;46.072;14.474;2022-08-21T00:21:35;2.20;;;2.00;;
44606;SDS011;30315;46.072;14.474;2022-08-21T00:24:02;3.22;;;1.80;;
44606;SDS011;30315;46.072;14.474;2022-08-21T00:26:29;1.80;;;1.60;;
44606;SDS011;30315;46.072;14.474;2022-08-21T00:28:57;2.33;;;1.60;;
44606;SDS011;30315;46.072;14.474;2022-08-21T00:31:24;2.35;;;2.03;;
44606;SDS011;30315;46.072;14.474;2022-08-21T00:33:51;2.50;;;1.63;;
44606;SDS011;30315;46.072;14.474;2022-08-21T00:36:26;1.95;;;1.85;;
44606;SDS011;30315;46.072;14.474;2022-08-21T00:38:54;2.13;;;1.90;;
44606;SDS011;30315;46.072;14.474;2022-08-21T00:41:21;4.53;;;2.00;;
44606;SDS011;30315;46.072;14.474;2022-08-21T00:44:05;2.85;;;1.73;;
44606;SDS011;30315;46.072;14.474;2022-08-21T00:46:34;2.58;;;1.90;;
44606;SDS011;30315;46.072;14.474;2022-08-21T00:49:02;2.63;;;1.90;;
44606;SDS011;30315;46.072;14.474;2022-08-21T00:51:33;2.42;;;1.90;;
44606;SDS011;30315;46.072;14.474;2022-08-21T00:54:05;2.25;;;1.80;;
44606;SDS011;30315;46.072;14.474;2022-08-21T00:56:45;6.72;;;2.00;;
44606;SDS011;30315;46.072;14.474;2022-08-21T00:59:17;1.40;;;1.30;;
44606;SDS011;30315;46.072;14.474;2022-08-21T01:01:45;2.97;;;1.55;;
44606;SDS011;30315;46.072;14.474;2022-08-21T01:04:13;1.83;;;1.67;;
44606;SDS011;30315;46.072;14.474;2022-08-21T01:06:42;2.20;;;1.70;;
44606;SDS011;30315;46.072;14.474;2022-08-21T01:09:10;2.22;;;1.55;;
44606;SDS011;30315;46.072;14.474;2022-08-21T01:11:38;3.42;;;1.77;;
44606;SDS011;30315;46.072;14.474;2022-08-21T01:14:05;3.90;;;1.80;;
44606;SDS011;30315;46.072;14.474;2022-08-21T01:16:32;3.13;;;1.85;;
44606;SDS011;30315;46.072;14.474;2022-08-21T01:18:59;3.03;;;1.63;;
44606;SDS011;30315;46.072;14.474;2022-08-21T01:21:26;1.98;;;1.70;;
44606;SDS011;30315;46.072;14.474;2022-08-21T01:23:54;2.13;;;1.52;;
44606;SDS011;30315;46.072;14.474;2022-08-21T01:26:25;4.27;;;1.83;;
44606;SDS011;30315;46.072;14.474;2022-08-21T01:29:02;3.25;;;1.88;;
44606;SDS011;30315;46.072;14.474;2022-08-21T01:31:50;3.17;;;1.80;;
44606;SDS011;30315;46.072;14.474;2022-08-21T01:34:17;4.80;;;1.60;;
44606;SDS011;30315;46.072;14.474;2022-08-21T01:36:44;1.92;;;1.60;;
44606;SDS011;30315;46.072;14.474;2022-08-21T01:39:13;2.00;;;1.90;;
44606;SDS011;30315;46.072;14.474;2022-08-21T01:41:41;3.70;;;1.90;;
44606;SDS011;30315;46.072;14.474;2022-08-21T01:44:08;2.80;;;1.75;;
44606;SDS011;30315;46.072;14.474;2022-08-21T01:46:35;3.45;;;1.58;;
44606;SDS011;30315;46.072;14.474;2022-08-21T01:49:03;1.90;;;1.73;;
44606;SDS011;30315;46.072;14.474;2022-08-21T01:51:31;2.70;;;2.00;;
44606;SDS011;30315;46.072;14.474;2022-08-21T01:53:58;4.30;;;1.90;;
44606;SDS011;30315;46.072;14.474;2022-08-21T01:56:25;7.55;;;2.10;;
44606;SDS011;30315;46.072;14.474;2022-08-21T01:58:54;2.45;;;1.90;;
44606;SDS011;30315;46.072;14.474;2022-08-21T02:01:21;2.15;;;1.95;;
44606;SDS011;30315;46.072;14.474;2022-08-21T02:03:48;1.85;;;1.67;;
44606;SDS011;30315;46.072;14.474;2022-08-21T02:06:15;2.58;;;1.70;;
44606;SDS011;30315;46.072;14.474;2022-08-21T02:08:44;2.30;;;1.90;;
44606;SDS011;30315;46.072;14.474;2022-08-21T02:11:12;2.65;;;1.60;;
44606;SDS011;30315;46.072;14.474;2022-08-21T02:13:58;4.03;;;1.90;;
44606;SDS011;30315;46.072;14.474;2022-08-21T02:16:25;2.97;;;2.03;;
44606;SDS011;30315;46.072;14.474;2022-08-21T02:18:52;5.15;;;1.98;;
44606;SDS011;30315;46.072;14.474;2022-08-21T02:21:20;2.17;;;1.90;;
44606;SDS011;30315;46.072;14.474;2022-08-21T02:23:47;3.72;;;1.90;;
44606;SDS011;30315;46.072;14.474;2022-08-21T02:26:14;4.18;;;1.92;;
44606;SDS011;30315;46.072;14.474;2022-08-21T02:28:41;1.98;;;1.60;;
44606;SDS011;30315;46.072;14.474;2022-08-21T02:31:08;2.13;;;1.65;;
44606;SDS011;30315;46.072;14.474;2022-08-21T02:33:36;1.70;;;1.60;;
44606;SDS011;30315;46.072;14.474;2022-08-21T02:36:03;2.22;;;1.95;;
44606;SDS011;30315;46.072;14.474;2022-08-21T02:38:31;3.70;;;2.17;;
44606;SDS011;30315;46.072;14.474;2022-08-21T02:41:00;4.80;;;1.98;;
44606;SDS011;30315;46.072;14.474;2022-08-21T02:43:27;2.30;;;1.70;;
44606;SDS011;30315;46.072;14.474;2022-08-21T02:45:55;2.50;;;2.08;;
44606;SDS011;30315;46.072;14.474;2022-08-21T02:48:27;2.15;;;1.95;;
44606;SDS011;30315;46.072;14.474;2022-08-21T02:50:57;2.20;;;2.00;;
44606;SDS011;30315;46.072;14.474;2022-08-21T02:53:26;2.20;;;2.00;;
44606;SDS011;30315;46.072;14.474;2022-08-21T02:55:56;4.13;;;1.98;;
44606;SDS011;30315;46.072;14.474;2022-08-21T02:58:26;3.03;;;2.10;;
44606;SDS011;30315;46.072;14.474;2022-08-21T03:00:55;4.93;;;2.17;;
44606;SDS011;30315;46.072;14.474;2022-08-21T03:03:22;4.32;;;2.00;;
44606;SDS011;30315;46.072;14.474;2022-08-21T03:05:49;2.05;;;1.85;;
44606;SDS011;30315;46.072;14.474;2022-08-21T03:08:17;2.22;;;2.03;;
44606;SDS011;30315;46.072;14.474;2022-08-21T03:10:45;2.30;;;2.10;;
44606;SDS011;30315;46.072;14.474;2022-08-21T03:13:14;4.35;;;2.17;;
44606;SDS011;30315;46.072;14.474;2022-08-21T03:15:42;4.13;;;2.20;;
44606;SDS011;30315;46.072;14.474;2022-08-21T03:18:10;3.28;;;2.17;;
44606;SDS011;30315;46.072;14.474;2022-08-21T03:20:38;2.80;;;1.90;;
44606;SDS011;30315;46.072;14.474;2022-08-21T03:23:06;4.88;;;2.28;;
44606;SDS011;30315;46.072;14.474;2022-08-21T03:25:39;1.90;;;1.80;;
44606;SDS011;30315;46.072;14.474;2022-08-21T03:28:09;3.85;;;1.90;;
44606;SDS011;30315;46.072;14.474;2022-08-21T03:30:40;3.28;;;2.20;;
44606;SDS011;30315;46.072;14.474;2022-08-21T03:33:09;2.95;;;1.95;;
44606;SDS011;30315;46.072;14.474;2022-08-21T03:38:06;3.65;;;2.08;;
44606;SDS011;30315;46.072;14.474;2022-08-21T03:40:33;5.50;;;2.40;;
44606;SDS011;30315;46.072;14.474;2022-08-21T03:43:00;2.13;;;1.92;;
44606;SDS011;30315;46.072;14.474;2022-08-21T03:45:27;2.78;;;1.77;;
44606;SDS011;30315;46.072;14.474;2022-08-21T03:47:58;2.53;;;2.10;;
44606;SDS011;30315;46.072;14.474;2022-08-21T03:50:32;7.72;;;2.17;;
44606;SDS011;30315;46.072;14.474;2022-08-21T03:53:07;3.33;;;2.45;;
44606;SDS011;30315;46.072;14.474;2022-08-21T03:55:46;4.50;;;1.88;;
44606;SDS011;30315;46.072;14.474;2022-08-21T03:58:16;3.05;;;2.10;;
44606;SDS011;30315;46.072;14.474;2022-08-21T04:00:45;2.15;;;1.75;;
44606;SDS011;30315;46.072;14.474;2022-08-21T04:03:13;2.50;;;2.10;;
44606;SDS011;30315;46.072;14.474;2022-08-21T04:05:41;2.33;;;2.08;;
44606;SDS011;30315;46.072;14.474;2022-08-21T04:08:08;2.53;;;2.33;;
44606;SDS011;30315;46.072;14.474;2022-08-21T04:10:36;2.28;;;2.17;;
44606;SDS011;30315;46.072;14.474;2022-08-21T04:13:05;3.67;;;1.93;;
44606;SDS011;30315;46.072;14.474;2022-08-21T04:15:33;3.63;;;2.17;;
44606;SDS011;30315;46.072;14.474;2022-08-21T04:18:01;2.72;;;2.03;;
44606;SDS011;30315;46.072;14.474;2022-08-21T04:20:28;2.05;;;1.90;;
44606;SDS011;30315;46.072;14.474;2022-08-21T04:22:55;2.05;;;1.85;;
44606;SDS011;30315;46.072;14.474;2022-08-21T04:25:23;2.55;;;2.35;;
44606;SDS011;30315;46.072;14.474;2022-08-21T04:27:52;2.28;;;2.08;;
44606;SDS011;30315;46.072;14.474;2022-08-21T04:30:19;5.93;;;2.20;;
44606;SDS011;30315;46.072;14.474;2022-08-21T04:32:54;2.30;;;2.10;;
44606;SDS011;30315;46.072;14.474;2022-08-21T04:35:24;2.67;;;2.33;;
44606;SDS011;30315;46.072;14.474;2022-08-21T04:40:20;4.00;;;2.38;;
44606;SDS011;30315;46.072;14.474;2022-08-21T04:42:50;3.53;;;2.33;;
44606;SDS011;30315;46.072;14.474;2022-08-21T04:45:21;2.55;;;2.00;;
44606;SDS011;30315;46.072;14.474;2022-08-21T04:47:52;2.28;;;2.08;;
44606;SDS011;30315;46.072;14.474;2022-08-21T04:50:34;2.33;;;2.13;;
44606;SDS011;30315;46.072;14.474;2022-08-21T04:53:05;4.20;;;2.10;;
44606;SDS011;30315;46.072;14.474;2022-08-21T04:55:37;4.82;;;2.22;;
44606;SDS011;30315;46.072;14.474;2022-08-21T04:58:06;3.23;;;2.20;;
44606;SDS011;30315;46.072;14.474;2022-08-21T05:00:33;2.80;;;2.17;;
44606;SDS011;30315;46.072;14.474;2022-08-21T05:03:00;3.88;;;2.30;;
44606;SDS011;30315;46.072;14.474;2022-08-21T05:05:29;2.70;;;2.40;;
44606;SDS011;30315;46.072;14.474;2022-08-21T05:07:57;3.03;;;2.42;;
44606;SDS011;30315;46.072;14.474;2022-08-21T05:10:27;2.40;;;2.20;;
44606;SDS011;30315;46.072;14.474;2022-08-21T05:12:55;2.28;;;2.15;;
44606;SDS011;30315;46.072;14.474;2022-08-21T05:15:22;2.17;;;1.98;;
44606;SDS011;30315;46.072;14.474;2022-08-21T05:17:49;4.10;;;2.10;;
44606;SDS011;30315;46.072;14.474;2022-08-21T05:20:26;2.45;;;2.25;;
44606;SDS011;30315;46.072;14.474;2022-08-21T05:22:53;3.33;;;2.20;;
44606;SDS011;30315;46.072;14.474;2022-08-21T05:25:20;2.28;;;2.05;;
44606;SDS011;30315;46.072;14.474;2022-08-21T05:27:49;3.53;;;2.35;;
44606;SDS011;30315;46.072;14.474;2022-08-21T05:30:17;3.03;;;2.15;;
44606;SDS011;30315;46.072;14.474;2022-08-21T05:32:45;2.58;;;2.22;;
44606;SDS011;30315;46.072;14.474;2022-08-21T05:35:13;5.93;;;2.75;;
44606;SDS011;30315;46.072;14.474;2022-08-21T05:37:40;4.45;;;2.78;;
44606;SDS011;30315;46.072;14.474;2022-08-21T05:40:08;2.22;;;2.08;;
44606;SDS011;30315;46.072;14.474;2022-08-21T05:42:48;4.68;;;2.28;;
44606;SDS011;30315;46.072;14.474;2022-08-21T05:45:26;2.65;;;2.15;;
44606;SDS011;30315;46.072;14.474;2022-08-21T05:48:22;3.40;;;2.22;;
44606;SDS011;30315;46.072;14.474;2022-08-21T05:50:51;3.22;;;2.78;;
44606;SDS011;30315;46.072;14.474;2022-08-21T05:53:19;3.13;;;2.42;;
44606;SDS011;30315;46.072;14.474;2022-08-21T05:55:48;2.95;;;2.13;;
44606;SDS011;30315;46.072;14.474;2022-08-21T05:58:16;3.10;;;2.10;;
44606;SDS011;30315;46.072;14.474;2022-08-21T06:00:45;4.60;;;2.00;;
44606;SDS011;30315;46.072;14.474;2022-08-21T06:03:18;2.63;;;2.00;;
44606;SDS011;30315;46.072;14.474;2022-08-21T06:05:47;4.28;;;2.00;;
44606;SDS011;30315;46.072;14.474;2022-08-21T06:08:15;1.83;;;1.70;;
44606;SDS011;30315;46.072;14.474;2022-08-21T06:10:43;6.13;;;1.83;;
44606;SDS011;30315;46.072;14.474;2022-08-21T06:13:13;2.78;;;2.05;;
44606;SDS011;30315;46.072;14.474;2022-08-21T06:15:41;2.30;;;2.10;;
44606;SDS011;30315;46.072;14.474;2022-08-21T06:18:09;2.20;;;2.00;;
44606;SDS011;30315;46.072;14.474;2022-08-21T06:20:36;4.40;;;2.25;;
44606;SDS011;30315;46.072;14.474;2022-08-21T06:23:04;1.85;;;1.73;;
44606;SDS011;30315;46.072;14.474;2022-08-21T06:25:31;2.80;;;1.92;;
44606;SDS011;30315;46.072;14.474;2022-08-21T06:28:05;5.22;;;2.42;;
44606;SDS011;30315;46.072;14.474;2022-08-21T06:30:34;3.58;;;2.15;;
44606;SDS011;30315;46.072;14.474;2022-08-21T06:33:02;3.03;;;1.90;;
44606;SDS011;30315;46.072;14.474;2022-08-21T06:35:30;2.42;;;1.75;;
44606;SDS011;30315;46.072;14.474;2022-08-21T06:37:57;1.90;;;1.80;;
44606;SDS011;30315;46.072;14.474;2022-08-21T06:40:28;3.05;;;1.92;;
44606;SDS011;30315;46.072;14.474;2022-08-21T06:42:57;2.25;;;1.95;;
44606;SDS011;30315;46.072;14.474;2022-08-21T06:45:30;2.15;;;1.85;;
44606;SDS011;30315;46.072;14.474;2022-08-21T06:47:58;2.65;;;2.13;;
44606;SDS011;30315;46.072;14.474;2022-08-21T06:50:25;2.38;;;1.95;;
44606;SDS011;30315;46.072;14.474;2022-08-21T06:53:12;2.00;;;1.80;;
44606;SDS011;30315;46.072;14.474;2022-08-21T06:55:40;2.28;;;2.08;;
44606;SDS011;30315;46.072;14.474;2022-08-21T06:58:08;1.83;;;1.73;;
44606;SDS011;30315;46.072;14.474;2022-08-21T07:00:38;1.88;;;1.63;;
44606;SDS011;30315;46.072;14.474;2022-08-21T07:03:06;2.95;;;1.90;;
44606;SDS011;30315;46.072;14.474;2022-08-21T07:05:33;2.75;;;1.90;;
44606;SDS011;30315;46.072;14.474;2022-08-21T07:08:01;3.92;;;1.90;;
44606;SDS011;30315;46.072;14.474;2022-08-21T07:10:28;4.53;;;1.80;;
44606;SDS011;30315;46.072;14.474;2022-08-21T07:12:55;2.97;;;1.95;;
44606;SDS011;30315;46.072;14.474;2022-08-21T07:15:27;2.03;;;1.83;;
44606;SDS011;30315;46.072;14.474;2022-08-21T07:17:55;1.88;;;1.67;;
44606;SDS011;30315;46.072;14.474;2022-08-21T07:20:23;2.15;;;1.88;;
44606;SDS011;30315;46.072;14.474;2022-08-21T07:22:50;2.47;;;2.20;;
44606;SDS011;30315;46.072;14.474;2022-08-21T07:25:17;3.25;;;2.00;;
44606;SDS011;30315;46.072;14.474;2022-08-21T07:27:44;6.00;;;2.25;;
44606;SDS011;30315;46.072;14.474;2022-08-21T07:30:11;2.47;;;1.92;;
44606;SDS011;30315;46.072;14.474;2022-08-21T07:32:38;2.10;;;2.00;;
44606;SDS011;30315;46.072;14.474;2022-08-21T07:35:06;3.83;;;2.00;;
44606;SDS011;30315;46.072;14.474;2022-08-21T07:37:33;2.63;;;2.05;;
44606;SDS011;30315;46.072;14.474;2022-08-21T07:40:00;1.73;;;1.60;;
44606;SDS011;30315;46.072;14.474;2022-08-21T07:42:27;2.35;;;2.13;;
44606;SDS011;30315;46.072;14.474;2022-08-21T07:44:54;2.30;;;2.10;;
44606;SDS011;30315;46.072;14.474;2022-08-21T07:47:21;5.18;;;2.03;;
44606;SDS011;30315;46.072;14.474;2022-08-21T07:50:08;4.30;;;2.17;;
44606;SDS011;30315;46.072;14.474;2022-08-21T07:52:39;2.00;;;1.85;;
44606;SDS011;30315;46.072;14.474;2022-08-21T07:55:08;1.98;;;1.50;;
44606;SDS011;30315;46.072;14.474;2022-08-21T08:00:04;2.30;;;2.10;;
44606;SDS011;30315;46.072;14.474;2022-08-21T08:02:48;1.60;;;1.50;;
44606;SDS011;30315;46.072;14.474;2022-08-21T08:05:18;2.50;;;1.70;;
44606;SDS011;30315;46.072;14.474;2022-08-21T08:07:47;3.97;;;1.90;;
44606;SDS011;30315;46.072;14.474;2022-08-21T08:10:14;1.88;;;1.77;;
44606;SDS011;30315;46.072;14.474;2022-08-21T08:12:43;2.67;;;1.83;;
44606;SDS011;30315;46.072;14.474;2022-08-21T08:15:15;1.80;;;1.70;;
44606;SDS011;30315;46.072;14.474;2022-08-21T08:17:43;1.52;;;1.42;;
44606;SDS011;30315;46.072;14.474;2022-08-21T08:20:11;1.67;;;1.58;;
44606;SDS011;30315;46.072;14.474;2022-08-21T08:22:39;1.60;;;1.50;;
44606;SDS011;30315;46.072;14.474;2022-08-21T08:25:08;4.30;;;1.60;;
44606;SDS011;30315;46.072;14.474;2022-08-21T08:27:36;1.85;;;1.65;;
44606;SDS011;30315;46.072;14.474;2022-08-21T08:30:04;2.38;;;1.67;;
44606;SDS011;30315;46.072;14.474;2022-08-21T08:32:32;1.98;;;1.50;;
44606;SDS011;30315;46.072;14.474;2022-08-21T08:35:20;1.55;;;1.45;;
44606;SDS011;30315;46.072;14.474;2022-08-21T08:37:55;1.63;;;1.52;;
44606;SDS011;30315;46.072;14.474;2022-08-21T08:40:41;1.33;;;1.30;;
44606;SDS011;30315;46.072;14.474;2022-08-21T08:43:24;1.63;;;1.52;;
44606;SDS011;30315;46.072;14.474;2022-08-21T08:45:53;2.38;;;1.60;;
44606;SDS011;30315;46.072;14.474;2022-08-21T08:48:33;3.25;;;1.40;;
44606;SDS011;30315;46.072;14.474;2022-08-21T08:51:10;3.17;;;1.58;;
44606;SDS011;30315;46.072;14.474;2022-08-21T08:53:51;2.00;;;1.60;;
44606;SDS011;30315;46.072;14.474;2022-08-21T08:56:25;1.55;;;1.45;;
44606;SDS011;30315;46.072;14.474;2022-08-21T08:58:56;3.78;;;1.48;;
44606;SDS011;30315;46.072;14.474;2022-08-21T09:01:32;2.00;;;1.90;;
44606;SDS011;30315;46.072;14.474;2022-08-21T09:04:04;1.38;;;1.23;;
44606;SDS011;30315;46.072;14.474;2022-08-21T09:12:08;2.25;;;1.77;;
44606;SDS011;30315;46.072;14.474;2022-08-21T09:14:47;1.80;;;1.70;;
44606;SDS011;30315;46.072;14.474;2022-08-21T09:17:39;1.73;;;1.63;;
44606;SDS011;30315;46.072;14.474;2022-08-21T09:26:19;3.35;;;1.75;;
44606;SDS011;30315;46.072;14.474;2022-08-21T09:28:54;1.85;;;1.40;;
44606;SDS011;30315;46.072;14.474;2022-08-21T09:33:56;1.75;;;1.52;;
44606;SDS011;30315;46.072;14.474;2022-08-21T09:36:25;2.22;;;1.70;;
44606;SDS011;30315;46.072;14.474;2022-08-21T09:38:59;2.17;;;2.05;;
44606;SDS011;30315;46.072;14.474;2022-08-21T09:41:27;2.08;;;1.95;;
44606;SDS011;30315;46.072;14.474;2022-08-21T09:44:00;2.45;;;2.25;;
44606;SDS011;30315;46.072;14.474;2022-08-21T09:46:28;2.35;;;2.15;;
44606;SDS011;30315;46.072;14.474;2022-08-21T09:48:56;1.92;;;1.80;;
44606;SDS011;30315;46.072;14.474;2022-08-21T09:51:35;1.70;;;1.52;;
44606;SDS011;30315;46.072;14.474;2022-08-21T09:54:14;2.53;;;1.80;;
44606;SDS011;30315;46.072;14.474;2022-08-21T10:00:20;1.77;;;1.65;;
44606;SDS011;30315;46.072;14.474;2022-08-21T10:02:52;1.55;;;1.33;;
44606;SDS011;30315;46.072;14.474;2022-08-21T10:05:26;1.50;;;1.40;;
44606;SDS011;30315;46.072;14.474;2022-08-21T10:07:54;1.50;;;1.40;;
44606;SDS011;30315;46.072;14.474;2022-08-21T10:10:23;1.27;;;1.17;;
44606;SDS011;30315;46.072;14.474;2022-08-21T10:12:57;1.25;;;1.15;;
44606;SDS011;30315;46.072;14.474;2022-08-21T10:18:36;1.95;;;0.90;;
44606;SDS011;30315;46.072;14.474;2022-08-21T10:21:17;0.68;;;0.68;;
44606;SDS011;30315;46.072;14.474;2022-08-21T10:24:12;0.88;;;0.88;;
44606;SDS011;30315;46.072;14.474;2022-08-21T10:29:53;0.70;;;0.70;;
44606;SDS011;30315;46.072;14.474;2022-08-21T10:32:43;0.75;;;0.75;;
44606;SDS011;30315;46.072;14.474;2022-08-21T10:35:26;0.88;;;0.80;;
44606;SDS011;30315;46.072;14.474;2022-08-21T10:49:28;0.70;;;0.70;;
44606;SDS011;30315;46.072;14.474;2022-08-21T10:52:28;0.60;;;0.60;;
44606;SDS011;30315;46.072;14.474;2022-08-21T10:55:44;1.75;;;1.00;;
44606;SDS011;30315;46.072;14.474;2022-08-21T10:58:27;1.00;;;0.80;;
44606;SDS011;30315;46.072;14.474;2022-08-21T11:01:08;0.60;;;0.60;;
44606;SDS011;30315;46.072;14.474;2022-08-21T11:03:51;2.33;;;1.15;;
44606;SDS011;30315;46.072;14.474;2022-08-21T11:06:28;0.85;;;0.85;;
44606;SDS011;30315;46.072;14.474;2022-08-21T11:09:21;0.63;;;0.63;;
44606;SDS011;30315;46.072;14.474;2022-08-21T11:11:52;0.82;;;0.73;;
44606;SDS011;30315;46.072;14.474;2022-08-21T11:17:41;0.90;;;0.90;;
44606;SDS011;30315;46.072;14.474;2022-08-21T11:20:26;1.52;;;0.85;;
44606;SDS011;30315;46.072;14.474;2022-08-21T11:23:14;0.80;;;0.80;;
44606;SDS011;30315;46.072;14.474;2022-08-21T11:25:49;1.10;;;1.00;;
44606;SDS011;30315;46.072;14.474;2022-08-21T11:28:26;0.90;;;0.80;;
44606;SDS011;30315;46.072;14.474;2022-08-21T11:36:15;1.02;;;0.80;;
44606;SDS011;30315;46.072;14.474;2022-08-21T11:38:55;0.93;;;0.90;;
44606;SDS011;30315;46.072;14.474;2022-08-21T11:41:47;0.80;;;0.80;;
44606;SDS011;30315;46.072;14.474;2022-08-21T11:47:15;0.60;;;0.60;;
44606;SDS011;30315;46.072;14.474;2022-08-21T11:50:14;0.60;;;0.60;;
44606;SDS011;30315;46.072;14.474;2022-08-21T11:55:57;0.70;;;0.70;;
44606;SDS011;30315;46.072;14.474;2022-08-21T11:58:41;0.70;;;0.70;;
44606;SDS011;30315;46.072;14.474;2022-08-21T12:01:17;0.70;;;0.70;;
44606;SDS011;30315;46.072;14.474;2022-08-21T12:04:08;1.13;;;0.80;;
44606;SDS011;30315;46.072;14.474;2022-08-21T12:06:40;0.73;;;0.73;;
44606;SDS011;30315;46.072;14.474;2022-08-21T12:09:10;0.70;;;0.70;;
44606;SDS011;30315;46.072;14.474;2022-08-21T12:12:01;0.60;;;0.60;;
44606;SDS011;30315;46.072;14.474;2022-08-21T12:14:45;1.00;;;0.90;;
44606;SDS011;30315;46.072;14.474;2022-08-21T12:17:22;0.80;;;0.80;;
44606;SDS011;30315;46.072;14.474;2022-08-21T12:20:02;1.05;;;0.98;;
44606;SDS011;30315;46.072;14.474;2022-08-21T12:22:41;1.33;;;0.70;;
44606;SDS011;30315;46.072;14.474;2022-08-21T12:25:19;0.75;;;0.75;;
44606;SDS011;30315;46.072;14.474;2022-08-21T12:32:57;0.98;;;0.73;;
44606;SDS011;30315;46.072;14.474;2022-08-21T12:35:30;0.70;;;0.70;;
44606;SDS011;30315;46.072;14.474;2022-08-21T12:38:06;0.95;;;0.80;;
44606;SDS011;30315;46.072;14.474;2022-08-21T12:40:40;0.80;;;0.80;;
44606;SDS011;30315;46.072;14.474;2022-08-21T12:43:16;0.73;;;0.73;;
44606;SDS011;30315;46.072;14.474;2022-08-21T12:45:48;0.82;;;0.70;;
44606;SDS011;30315;46.072;14.474;2022-08-21T12:50:54;0.80;;;0.80;;
44606;SDS011;30315;46.072;14.474;2022-08-21T12:56:03;0.90;;;0.90;;
44606;SDS011;30315;46.072;14.474;2022-08-21T12:58:35;0.80;;;0.80;;
44606;SDS011;30315;46.072;14.474;2022-08-21T13:01:06;0.80;;;0.80;;
44606;SDS011;30315;46.072;14.474;2022-08-21T13:03:43;1.30;;;1.20;;
44606;SDS011;30315;46.072;14.474;2022-08-21T13:06:15;1.00;;;1.00;;
44606;SDS011;30315;46.072;14.474;2022-08-21T13:08:43;0.73;;;0.73;;
44606;SDS011;30315;46.072;14.474;2022-08-21T13:13:57;0.93;;;0.93;;
44606;SDS011;30315;46.072;14.474;2022-08-21T13:16:30;0.80;;;0.80;;
44606;SDS011;30315;46.072;14.474;2022-08-21T13:19:05;0.75;;;0.75;;
44606;SDS011;30315;46.072;14.474;2022-08-21T13:21:34;1.05;;;1.05;;
44606;SDS011;30315;46.072;14.474;2022-08-21T13:24:25;1.10;;;1.10;;
44606;SDS011;30315;46.072;14.474;2022-08-21T13:27:16;1.00;;;1.00;;
44606;SDS011;30315;46.072;14.474;2022-08-21T13:29:48;2.30;;;1.05;;
44606;SDS011;30315;46.072;14.474;2022-08-21T13:32:32;1.20;;;1.10;;
44606;SDS011;30315;46.072;14.474;2022-08-21T13:35:17;2.38;;;1.02;;
44606;SDS011;30315;46.072;14.474;2022-08-21T13:37:45;1.83;;;1.13;;
44606;SDS011;30315;46.072;14.474;2022-08-21T13:42:43;1.30;;;1.20;;
44606;SDS011;30315;46.072;14.474;2022-08-21T13:45:15;0.98;;;0.98;;
44606;SDS011;30315;46.072;14.474;2022-08-21T13:47:52;1.00;;;1.00;;
44606;SDS011;30315;46.072;14.474;2022-08-21T13:50:21;2.78;;;1.30;;
44606;SDS011;30315;46.072;14.474;2022-08-21T13:52:57;1.73;;;1.35;;
44606;SDS011;30315;46.072;14.474;2022-08-21T13:55:33;0.90;;;0.90;;
44606;SDS011;30315;46.072;14.474;2022-08-21T13:58:06;1.45;;;1.00;;
44606;SDS011;30315;46.072;14.474;2022-08-21T14:00:42;1.20;;;1.10;;
44606;SDS011;30315;46.072;14.474;2022-08-21T14:03:25;5.63;;;1.15;;
44606;SDS011;30315;46.072;14.474;2022-08-21T14:05:57;1.10;;;1.10;;
44606;SDS011;30315;46.072;14.474;2022-08-21T14:08:34;1.25;;;1.15;;
44606;SDS011;30315;46.072;14.474;2022-08-21T14:11:04;2.17;;;1.50;;
44606;SDS011;30315;46.072;14.474;2022-08-21T14:13:37;1.92;;;1.83;;
44606;SDS011;30315;46.072;14.474;2022-08-21T14:16:24;2.10;;;2.00;;
44606;SDS011;30315;46.072;14.474;2022-08-21T14:19:10;2.25;;;2.05;;
44606;SDS011;30315;46.072;14.474;2022-08-21T14:21:46;1.70;;;1.60;;
44606;SDS011;30315;46.072;14.474;2022-08-21T14:24:24;1.70;;;1.60;;
44606;SDS011;30315;46.072;14.474;2022-08-21T14:27:17;1.70;;;1.60;;
44606;SDS011;30315;46.072;14.474;2022-08-21T14:29:43;1.73;;;1.63;;
44606;SDS011;30315;46.072;14.474;2022-08-21T14:32:20;1.88;;;1.75;;
44606;SDS011;30315;46.072;14.474;2022-08-21T14:34:51;2.08;;;1.20;;
44606;SDS011;30315;46.072;14.474;2022-08-21T14:37:20;1.50;;;1.40;;
44606;SDS011;30315;46.072;14.474;2022-08-21T14:39:48;1.98;;;1.88;;
44606;SDS011;30315;46.072;14.474;2022-08-21T14:42:15;2.20;;;1.15;;
44606;SDS011;30315;46.072;14.474;2022-08-21T14:44:42;1.50;;;1.40;;
44606;SDS011;30315;46.072;14.474;2022-08-21T14:47:09;2.22;;;2.00;;
44606;SDS011;30315;46.072;14.474;2022-08-21T14:49:37;2.53;;;1.55;;
44606;SDS011;30315;46.072;14.474;2022-08-21T14:52:04;1.30;;;1.20;;
44606;SDS011;30315;46.072;14.474;2022-08-21T14:54:31;1.55;;;1.45;;
44606;SDS011;30315;46.072;14.474;2022-08-21T14:57:01;1.27;;;1.17;;
44606;SDS011;30315;46.072;14.474;2022-08-21T14:59:34;1.70;;;1.60;;
44606;SDS011;30315;46.072;14.474;2022-08-21T15:02:02;1.30;;;1.20;;
44606;SDS011;30315;46.072;14.474;2022-08-21T15:04:31;1.98;;;1.60;;
44606;SDS011;30315;46.072;14.474;2022-08-21T15:06:59;1.70;;;1.60;;
44606;SDS011;30315;46.072;14.474;2022-08-21T15:09:26;2.38;;;2.17;;
44606;SDS011;30315;46.072;14.474;2022-08-21T15:11:55;1.80;;;1.70;;
44606;SDS011;30315;46.072;14.474;2022-08-21T15:14:24;2.03;;;1.92;;
44606;SDS011;30315;46.072;14.474;2022-08-21T15:16:55;1.63;;;1.52;;
44606;SDS011;30315;46.072;14.474;2022-08-21T15:19:22;1.50;;;1.40;;
44606;SDS011;30315;46.072;14.474;2022-08-21T15:21:49;2.50;;;1.08;;
44606;SDS011;30315;46.072;14.474;2022-08-21T15:24:16;1.70;;;1.60;;
44606;SDS011;30315;46.072;14.474;2022-08-21T15:26:43;1.77;;;1.67;;
44606;SDS011;30315;46.072;14.474;2022-08-21T15:29:11;1.65;;;1.55;;
44606;SDS011;30315;46.072;14.474;2022-08-21T15:31:48;2.40;;;1.48;;
44606;SDS011;30315;46.072;14.474;2022-08-21T15:34:20;1.70;;;1.58;;
44606;SDS011;30315;46.072;14.474;2022-08-21T15:36:53;2.00;;;1.90;;
44606;SDS011;30315;46.072;14.474;2022-08-21T15:39:24;2.20;;;2.00;;
44606;SDS011;30315;46.072;14.474;2022-08-21T15:41:57;1.75;;;1.65;;
44606;SDS011;30315;46.072;14.474;2022-08-21T15:44:25;1.65;;;1.55;;
44606;SDS011;30315;46.072;14.474;2022-08-21T15:46:53;1.67;;;1.58;;
44606;SDS011;30315;46.072;14.474;2022-08-21T15:49:21;1.52;;;1.42;;
44606;SDS011;30315;46.072;14.474;2022-08-21T15:51:49;1.60;;;1.50;;
44606;SDS011;30315;46.072;14.474;2022-08-21T15:54:16;3.13;;;2.25;;
44606;SDS011;30315;46.072;14.474;2022-08-21T15:56:44;1.85;;;1.75;;
44606;SDS011;30315;46.072;14.474;2022-08-21T15:59:15;2.42;;;2.33;;
44606;SDS011;30315;46.072;14.474;2022-08-21T16:01:51;1.70;;;1.60;;
44606;SDS011;30315;46.072;14.474;2022-08-21T16:04:23;1.75;;;1.58;;
44606;SDS011;30315;46.072;14.474;2022-08-21T16:06:52;1.60;;;1.50;;
44606;SDS011;30315;46.072;14.474;2022-08-21T16:09:29;1.55;;;1.45;;
44606;SDS011;30315;46.072;14.474;2022-08-21T16:11:56;1.88;;;1.30;;
44606;SDS011;30315;46.072;14.474;2022-08-21T16:14:24;1.40;;;1.30;;